createdAt,value
2022-12-09T00:00:11.860Z,57.38
2022-12-09T00:04:15.081Z,57.79
2022-12-09T00:08:15.452Z,57.54
2022-12-09T00:12:15.606Z,57.36
2022-12-09T00:16:17.666Z,57.65
2022-12-09T00:20:20.386Z,57.79
2022-12-09T00:24:20.477Z,58.10
2022-12-09T00:28:20.807Z,58.03
2022-12-09T00:32:21.243Z,57.66
2022-12-09T00:36:26.226Z,57.50
2022-12-09T00:40:26.566Z,58.58
2022-12-09T00:44:26.711Z,57.85
2022-12-09T00:48:27.313Z,57.82
2022-12-09T00:52:30.049Z,57.83
2022-12-09T00:56:33.257Z,57.88
2022-12-09T01:00:34.076Z,58.66
2022-12-09T01:04:34.449Z,57.93
2022-12-09T01:08:39.322Z,58.23
2022-12-09T01:12:39.802Z,57.78
2022-12-09T01:16:42.451Z,58.07
2022-12-09T01:20:43.425Z,58.45
2022-12-09T01:24:47.979Z,58.37
2022-12-09T01:28:52.522Z,58.00
2022-12-09T01:32:53.311Z,58.17
2022-12-09T01:36:53.955Z,59.38
2022-12-09T01:40:56.698Z,59.01
2022-12-09T01:45:40.748Z,60.17
2022-12-09T01:49:48.284Z,59.51
2022-12-09T01:53:53.939Z,59.96
2022-12-09T01:57:57.122Z,60.03
2022-12-09T02:02:03.408Z,59.68
2022-12-09T02:06:03.780Z,59.84
2022-12-09T02:10:08.946Z,59.57
2022-12-09T02:14:23.780Z,59.55
2022-12-09T02:18:39.138Z,59.79
2022-12-09T02:22:46.092Z,59.82
2022-12-09T02:26:56.337Z,59.31
2022-12-09T02:31:20.481Z,59.10
2022-12-09T02:35:30.459Z,59.81
2022-12-09T02:39:39.377Z,59.18
2022-12-09T02:43:50.353Z,59.39
2022-12-09T02:47:58.228Z,59.43
2022-12-09T02:52:02.484Z,59.50
2022-12-09T02:56:06.818Z,59.20
2022-12-09T03:00:11.296Z,59.20
2022-12-09T03:04:19.899Z,58.97
2022-12-09T03:08:38.973Z,59.27
2022-12-09T03:12:43.900Z,59.07
2022-12-09T03:16:52.607Z,59.14
2022-12-09T03:20:54.261Z,59.95
2022-12-09T03:25:04.289Z,59.55
2022-12-09T03:29:10.054Z,60.02
2022-12-09T03:33:12.427Z,59.76
2022-12-09T03:37:18.339Z,59.93
2022-12-09T03:41:30.996Z,59.56
2022-12-09T03:45:31.858Z,59.50
2022-12-09T03:49:32.578Z,59.47
2022-12-09T03:53:41.450Z,59.23
2022-12-09T03:57:48.573Z,58.99
2022-12-09T04:01:50.206Z,58.80
2022-12-09T04:05:50.484Z,58.85
2022-12-09T04:09:50.850Z,58.71
2022-12-09T04:13:53.558Z,58.59
2022-12-09T04:17:54.053Z,58.42
2022-12-09T04:21:54.374Z,58.44
2022-12-09T04:25:54.819Z,58.43
2022-12-09T04:29:57.952Z,58.26
2022-12-09T04:33:59.835Z,57.71
2022-12-09T04:38:02.776Z,58.11
2022-12-09T04:42:03.257Z,58.05
2022-12-09T04:46:09.005Z,58.26
2022-12-09T04:50:11.364Z,58.33
2022-12-09T04:54:16.739Z,58.10
2022-12-09T04:58:16.881Z,57.70
2022-12-09T05:02:19.854Z,57.68
2022-12-09T05:06:22.083Z,57.57
2022-12-09T05:10:22.838Z,57.56
2022-12-09T05:14:23.198Z,57.86
2022-12-09T05:18:26.022Z,58.04
2022-12-09T05:22:27.169Z,57.79
2022-12-09T05:26:27.759Z,57.46
2022-12-09T05:30:28.300Z,57.32
2022-12-09T05:34:32.035Z,57.12
2022-12-09T05:38:33.537Z,56.80
2022-12-09T05:42:40.966Z,56.91
2022-12-09T05:46:41.953Z,57.16
2022-12-09T05:50:45.024Z,57.16
2022-12-09T05:54:45.426Z,57.17
2022-12-09T05:58:46.221Z,56.93
2022-12-09T06:02:46.984Z,57.18
2022-12-09T06:06:50.040Z,57.10
2022-12-09T06:10:50.399Z,57.00
2022-12-09T06:14:51.006Z,57.06
2022-12-09T06:18:52.592Z,56.46
2022-12-09T06:22:55.827Z,56.40
2022-12-09T06:26:56.856Z,55.99
2022-12-09T06:31:00.019Z,55.84
2022-12-09T06:35:01.311Z,56.25
2022-12-09T06:39:10.564Z,56.36
2022-12-09T06:43:11.302Z,56.29
2022-12-09T06:47:11.883Z,56.67
2022-12-09T06:51:12.810Z,56.80
2022-12-09T06:55:16.855Z,56.96
2022-12-09T06:59:17.505Z,57.05
2022-12-09T07:03:18.051Z,57.02
2022-12-09T07:07:19.120Z,56.90
2022-12-09T07:11:22.720Z,56.84
2022-12-09T07:15:23.524Z,57.17
2022-12-09T07:19:26.312Z,56.65
2022-12-09T07:23:27.191Z,56.51
2022-12-09T07:27:29.933Z,56.07
2022-12-09T07:31:32.018Z,56.73
2022-12-09T07:35:33.045Z,56.49
2022-12-09T07:39:33.631Z,56.26
2022-12-09T07:43:36.760Z,55.99
2022-12-09T07:47:37.475Z,55.35
2022-12-09T07:51:38.223Z,55.11
2022-12-09T07:55:38.647Z,55.09
2022-12-09T07:59:41.592Z,54.91
2022-12-09T08:03:43.477Z,54.86
2022-12-09T08:07:44.710Z,54.54
2022-12-09T08:11:46.205Z,54.70
2022-12-09T08:15:49.421Z,53.94
2022-12-09T08:19:50.159Z,53.19
2022-12-09T08:23:51.526Z,52.90
2022-12-09T08:27:52.070Z,52.24
2022-12-09T08:31:55.390Z,51.78
2022-12-09T08:35:56.424Z,51.43
2022-12-09T08:39:56.619Z,50.74
2022-12-09T08:43:57.022Z,50.80
2022-12-09T08:48:00.320Z,50.44
2022-12-09T08:52:01.174Z,50.55
2022-12-09T08:56:02.034Z,49.87
2022-12-09T09:00:02.224Z,49.80
2022-12-09T09:04:10.667Z,50.16
2022-12-09T09:08:11.155Z,50.08
2022-12-09T09:12:11.502Z,50.42
2022-12-09T09:16:14.942Z,50.29
2022-12-09T09:20:18.425Z,50.21
2022-12-09T09:24:22.937Z,50.27
2022-12-09T09:28:28.978Z,49.70
2022-12-09T09:32:32.885Z,48.67
2022-12-09T09:36:36.856Z,47.42
2022-12-09T09:40:37.427Z,45.64
2022-12-09T09:44:43.255Z,44.47
2022-12-09T09:48:43.937Z,45.06
2022-12-09T09:52:46.779Z,43.73
2022-12-09T09:56:56.704Z,42.98
2022-12-09T10:01:06.622Z,44.14
2022-12-09T10:05:23.123Z,44.53
2022-12-09T10:09:39.790Z,45.42
2022-12-09T10:13:56.282Z,47.05
2022-12-09T10:18:14.524Z,46.46
2022-12-09T10:22:19.538Z,45.76
2022-12-09T10:26:30.299Z,45.85
2022-12-09T10:30:37.271Z,46.42
2022-12-09T10:34:42.609Z,46.40
2022-12-09T10:38:46.034Z,46.55
2022-12-09T10:43:05.584Z,46.73
2022-12-09T10:47:08.254Z,46.37
2022-12-09T10:51:17.605Z,46.03
2022-12-09T10:55:32.876Z,45.79
2022-12-09T10:59:38.136Z,45.73
2022-12-09T11:03:43.330Z,45.28
2022-12-09T11:07:51.315Z,45.15
2022-12-09T11:11:53.580Z,45.20
2022-12-09T11:16:01.621Z,43.95
2022-12-09T11:20:23.296Z,43.81
2022-12-09T11:24:25.456Z,43.53
2022-12-09T11:28:31.988Z,43.09
2022-12-09T11:32:35.638Z,42.48
2022-12-09T11:36:43.988Z,42.50
2022-12-09T11:40:44.644Z,42.39
2022-12-09T11:44:53.521Z,41.51
2022-12-09T11:49:03.448Z,41.13
2022-12-09T11:53:26.786Z,41.85
2022-12-09T11:57:37.421Z,41.83
2022-12-09T12:01:51.245Z,40.90
2022-12-09T12:05:58.788Z,41.25
2022-12-09T12:10:01.396Z,41.59
2022-12-09T12:14:09.384Z,41.48
2022-12-09T12:18:25.731Z,40.56
2022-12-09T12:23:08.402Z,40.75
2022-12-09T12:27:28.028Z,40.69
2022-12-09T12:32:07.263Z,40.47
2022-12-09T12:36:19.557Z,39.68
2022-12-09T12:40:39.422Z,39.71
2022-12-09T12:45:05.243Z,39.96
2022-12-09T12:49:42.253Z,40.91
2022-12-09T12:53:54.037Z,41.25
2022-12-09T12:58:09.646Z,41.31
2022-12-09T13:02:31.424Z,41.65
2022-12-09T13:06:43.910Z,42.55
2022-12-09T13:10:48.568Z,42.64
2022-12-09T13:14:56.855Z,42.41
2022-12-09T13:19:04.252Z,42.89
2022-12-09T13:23:14.915Z,42.34
2022-12-09T13:27:26.261Z,41.96
2022-12-09T13:31:33.602Z,42.17
2022-12-09T13:35:45.990Z,42.26
2022-12-09T13:40:01.243Z,41.92
2022-12-09T13:44:14.525Z,42.42
2022-12-09T13:48:47.332Z,42.72
2022-12-09T13:52:53.698Z,42.95
2022-12-09T13:57:21.099Z,43.09
2022-12-09T14:01:31.972Z,43.15
2022-12-09T14:05:39.569Z,43.94
2022-12-09T14:09:51.029Z,43.74
2022-12-09T14:13:51.908Z,43.59
2022-12-09T14:18:07.027Z,43.42
2022-12-09T14:22:41.932Z,44.15
2022-12-09T14:26:48.850Z,44.01
2022-12-09T14:30:54.991Z,44.72
2022-12-09T14:35:32.896Z,44.84
2022-12-09T14:39:47.722Z,44.78
2022-12-09T14:44:06.150Z,44.93
2022-12-09T14:48:14.055Z,45.41
2022-12-09T14:52:23.322Z,45.39
2022-12-09T14:56:29.118Z,45.62
2022-12-09T15:00:34.902Z,45.62
2022-12-09T15:04:39.407Z,46.07
2022-12-09T15:08:43.016Z,46.08
2022-12-09T15:12:50.060Z,46.33
2022-12-09T15:16:51.128Z,46.50
2022-12-09T15:20:55.675Z,46.54
2022-12-09T15:24:56.871Z,46.94
2022-12-09T15:29:05.257Z,47.06
2022-12-09T15:33:06.562Z,47.24
2022-12-09T15:37:09.371Z,47.42
2022-12-09T15:41:37.358Z,47.42
2022-12-09T15:45:46.006Z,47.66
2022-12-09T15:49:54.607Z,47.44
2022-12-09T15:54:01.271Z,47.50
2022-12-09T15:58:06.047Z,48.09
2022-12-09T16:02:12.761Z,47.86
2022-12-09T16:06:13.678Z,48.42
2022-12-09T16:10:18.099Z,48.48
2022-12-09T16:14:20.510Z,48.64
2022-12-09T16:18:27.747Z,48.62
2022-12-09T16:22:32.983Z,48.76
2022-12-09T16:26:37.906Z,48.50
2022-12-09T16:30:49.996Z,48.96
2022-12-09T16:34:55.490Z,49.08
2022-12-09T16:39:48.230Z,49.66
2022-12-09T16:44:21.465Z,49.93
2022-12-09T16:48:23.992Z,49.57
2022-12-09T16:52:27.592Z,49.79
2022-12-09T16:56:34.738Z,49.79
2022-12-09T17:00:35.010Z,49.50
2022-12-09T17:04:35.119Z,49.80
2022-12-09T17:08:37.352Z,49.61
2022-12-09T17:12:40.054Z,49.75
2022-12-09T17:16:40.915Z,49.52
2022-12-09T17:20:41.605Z,49.92
2022-12-09T17:24:42.502Z,50.01
2022-12-09T17:28:46.735Z,49.91
2022-12-09T17:32:46.962Z,49.93
2022-12-09T17:36:48.012Z,50.09
2022-12-09T17:40:48.396Z,49.77
2022-12-09T17:44:51.073Z,49.77
2022-12-09T17:48:51.308Z,49.76
2022-12-09T17:52:51.396Z,50.04
2022-12-09T17:56:51.530Z,49.91
2022-12-09T18:00:54.286Z,49.91
2022-12-09T18:04:54.645Z,49.89
2022-12-09T18:08:55.115Z,49.54
2022-12-09T18:12:55.203Z,49.53
2022-12-09T18:16:58.077Z,49.78
2022-12-09T18:21:03.015Z,50.16
2022-12-09T18:25:03.105Z,50.47
2022-12-09T18:29:03.424Z,50.38
2022-12-09T18:33:06.380Z,50.37
2022-12-09T18:37:06.706Z,50.42
2022-12-09T18:41:07.280Z,50.53
2022-12-09T18:45:08.748Z,50.37
2022-12-09T18:49:15.723Z,50.38
2022-12-09T18:53:15.804Z,50.02
2022-12-09T18:57:15.948Z,49.87
2022-12-09T19:01:23.996Z,49.71
2022-12-09T19:05:26.724Z,49.95
2022-12-09T19:09:31.843Z,50.05
2022-12-09T19:13:33.139Z,50.09
2022-12-09T19:17:33.441Z,50.17
2022-12-09T19:21:36.075Z,49.94
2022-12-09T19:25:36.179Z,49.88
2022-12-09T19:29:36.258Z,49.80
2022-12-09T19:33:36.377Z,49.81
2022-12-09T19:37:39.072Z,49.92
2022-12-09T19:41:40.469Z,49.56
2022-12-09T19:45:40.668Z,49.45
2022-12-09T19:49:42.154Z,49.30
2022-12-09T19:53:46.509Z,49.02
2022-12-09T19:57:46.574Z,49.10
2022-12-09T20:01:48.514Z,48.74
2022-12-09T20:05:54.139Z,48.78
2022-12-09T20:09:56.889Z,48.92
2022-12-09T20:13:59.537Z,48.75
2022-12-09T20:17:59.662Z,48.81
2022-12-09T20:21:59.823Z,48.74
2022-12-09T20:26:10.402Z,48.97
2022-12-09T20:30:12.893Z,48.67
2022-12-09T20:34:18.088Z,48.61
2022-12-09T20:38:18.223Z,48.50
2022-12-09T20:42:20.887Z,49.01
2022-12-09T20:46:24.728Z,48.74
2022-12-09T20:50:25.044Z,48.69
2022-12-09T20:54:25.992Z,48.37
2022-12-09T20:58:29.158Z,48.92
2022-12-09T21:02:29.467Z,48.80
2022-12-09T21:06:33.142Z,48.85
2022-12-09T21:10:33.447Z,49.03
2022-12-09T21:14:37.085Z,49.17
2022-12-09T21:18:39.541Z,49.33
2022-12-09T21:22:40.026Z,49.54
2022-12-09T21:26:41.165Z,49.45
2022-12-09T21:30:44.121Z,49.66
2022-12-09T21:34:44.672Z,49.92
2022-12-09T21:38:45.939Z,50.18
2022-12-09T21:42:46.359Z,50.05
2022-12-09T21:46:49.270Z,49.63
2022-12-09T21:50:57.470Z,49.51
2022-12-09T21:54:58.204Z,49.83
2022-12-09T21:59:00.827Z,49.92
2022-12-09T22:03:03.779Z,50.43
2022-12-09T22:07:03.854Z,50.10
2022-12-09T22:11:04.090Z,50.42
2022-12-09T22:15:04.586Z,50.18
2022-12-09T22:19:10.943Z,50.58
2022-12-09T22:23:11.437Z,50.68
2022-12-09T22:27:11.811Z,50.42
2022-12-09T22:31:13.668Z,50.55
2022-12-09T22:35:16.916Z,50.61
2022-12-09T22:39:19.228Z,50.76
2022-12-09T22:43:19.355Z,50.94
2022-12-09T22:47:19.601Z,50.93
2022-12-09T22:51:26.305Z,50.98
2022-12-09T22:55:26.457Z,50.54
2022-12-09T22:59:26.651Z,50.79
2022-12-09T23:03:27.429Z,50.69
2022-12-09T23:07:30.637Z,50.92
2022-12-09T23:11:31.714Z,51.00
2022-12-09T23:15:31.923Z,51.10
2022-12-09T23:19:32.000Z,50.98
2022-12-09T23:23:35.559Z,50.75
2022-12-09T23:27:35.629Z,50.61
2022-12-09T23:31:39.278Z,50.61
2022-12-09T23:35:41.173Z,50.85
2022-12-09T23:39:44.206Z,51.06
2022-12-09T23:43:45.073Z,51.05
2022-12-09T23:47:46.152Z,50.79
2022-12-09T23:51:46.692Z,50.63
2022-12-09T23:55:49.337Z,50.66
2022-12-09T23:59:49.923Z,50.85
